| time (UTC) | temp F | wind direction | speed knots | gust knots | rain 1hr in | rain 24hr in | rain mn in | humidity % | barometer mb |
| 20260905161005 | 71 | 284 | 1.7 | 5.2 | 0.02 | 0.62 | 0.02 | 91 | 919.0 |
| 20260905160505 | 71 | 241 | 1.7 | 4.3 | 0.01 | 0.61 | 0.01 | 91 | 918.9 |
| 20260905160005 | 71 | 206 | 1.7 | 5.2 | 0.00 | 0.60 | 0.00 | 91 | 918.5 |
| 20260905154504 | 72 | 40 | 0.0 | 0.9 | 0.00 | 0.60 | 0.00 | 90 | 916.8 |
| 20260905153504 | 73 | 253 | 0.0 | 1.7 | 0.00 | 0.60 | 0.00 | 89 | 915.0 |
| 20260905153005 | 73 | 180 | 0.9 | 4.3 | 0.00 | 0.60 | 0.00 | 88 | 914.3 |
| 20260905151505 | 74 | 282 | 1.7 | 5.2 | 0.00 | 0.60 | 0.00 | 87 | 914.0 |
| 20260905151004 | 74 | 249 | 0.9 | 4.3 | 0.00 | 0.60 | 0.00 | 87 | 913.9 |
| 20260905150504 | 74 | 128 | 0.9 | 4.3 | 0.00 | 0.60 | 0.00 | 86 | 912.9 |
| 20260905150004 | 75 | 122 | 0.9 | 10.4 | 0.00 | 0.60 | 0.00 | 86 | 912.7 |
| 20260905144504 | 79 | 312 | 5.2 | 11.3 | 0.00 | 0.60 | 0.00 | 81 | 915.0 |
| 20260905144004 | 80 | 253 | 3.5 | 8.7 | 0.00 | 0.60 | 0.00 | 78 | 916.0 |
| 20260905143504 | 80 | 257 | 0.9 | 4.3 | 0.00 | 0.60 | 0.00 | 81 | 913.6 |
| 20260905143004 | 79 | 239 | 2.6 | 5.2 | 0.00 | 0.60 | 0.00 | 81 | 913.9 |
| 20260905141504 | 78 | 205 | 1.7 | 5.2 | 0.00 | 0.60 | 0.00 | 85 | 911.8 |
| 20260905141005 | 77 | 185 | 1.7 | 4.3 | 0.00 | 0.60 | 0.00 | 86 | 911.8 |
| 20260905140005 | 75 | 247 | 1.7 | 5.2 | 0.00 | 0.60 | 0.00 | 90 | 912.8 |
| 20260905134504 | 74 | 217 | 1.7 | 4.3 | 0.00 | 0.60 | 0.00 | 95 | 918.1 |
| 20260905134005 | 73 | 183 | 1.7 | 4.3 | 0.00 | 0.60 | 0.00 | 96 | 919.5 |
| 20260905133504 | 72 | 228 | 1.7 | 4.3 | 0.00 | 0.60 | 0.00 | 94 | 920.3 |
| 20260905131503 | 71 | 256 | 0.0 | 1.7 | 0.00 | 0.60 | 0.00 | 96 | 924.0 |
| 20260905131004 | 71 | 189 | 0.0 | 1.7 | 0.00 | 0.60 | 0.00 | 96 | 924.0 |
| 20260905130504 | 71 | 206 | 0.0 | 1.7 | 0.00 | 0.60 | 0.00 | 96 | 924.0 |
| 20260905130004 | 70 | 186 | 0.9 | 1.7 | 0.00 | 0.60 | 0.00 | 96 | 924.0 |
| 20260905124503 | 67 | 224 | 0.0 | 1.7 | 0.00 | 0.60 | 0.00 | 95 | 923.0 |
| 20260905123503 | 66 | 223 | 0.9 | 1.7 | 0.00 | 0.60 | 0.00 | 95 | 922.5 |
| 20260905123005 | 65 | 264 | 0.0 | 1.7 | 0.00 | 0.60 | 0.00 | 95 | 922.4 |
| 20260905121506 | 65 | 153 | 0.0 | 1.7 | 0.00 | 0.60 | 0.00 | 95 | 921.9 |
| 20260905121005 | 65 | 181 | 0.0 | 1.7 | 0.00 | 0.60 | 0.00 | 95 | 921.8 |
| 20260905120006 | 64 | 175 | 0.9 | 1.7 | 0.00 | 0.60 | 0.00 | 95 | 921.6 |
| 20260905114006 | 64 | 315 | 0.0 | 1.7 | 0.00 | 0.60 | 0.00 | 95 | 921.4 |
| 20260905113505 | 64 | 97 | 0.0 | 0.9 | 0.00 | 0.60 | 0.00 | 95 | 921.4 |
| 20260905113005 | 64 | 84 | 0.0 | 1.7 | 0.00 | 0.60 | 0.00 | 95 | 921.4 |
| 20260905111505 | 64 | 350 | 0.0 | 1.7 | 0.00 | 0.60 | 0.00 | 95 | 921.1 |
| 20260905110006 | 64 | 329 | 0.0 | 1.7 | 0.00 | 0.60 | 0.00 | 95 | 921.0 |
| 20260905104005 | 64 | 80 | 0.0 | 0.9 | 0.00 | 0.60 | 0.00 | 95 | 921.1 |
| 20260905103506 | 64 | 204 | 0.0 | 0.9 | 0.00 | 0.60 | 0.00 | 95 | 921.1 |
| 20260905103005 | 64 | 39 | 0.0 | 0.9 | 0.00 | 0.60 | 0.00 | 95 | 921.2 |
| 20260905101505 | 64 | 170 | 0.0 | 0.9 | 0.00 | 0.60 | 0.00 | 95 | 921.2 |
| 20260905101005 | 64 | 196 | 0.0 | 0.9 | 0.00 | 0.60 | 0.00 | 95 | 921.2 |
| 20260905100505 | 64 | 125 | 0.0 | 1.7 | 0.00 | 0.60 | 0.00 | 95 | 921.2 |
| 20260905100005 | 64 | 151 | 0.0 | 1.7 | 0.00 | 0.60 | 0.00 | 95 | 921.2 |
| 20260905094505 | 64 | 152 | 0.0 | 0.9 | 0.00 | 0.60 | 0.00 | 95 | 921.0 |
| 20260905093505 | 64 | 63 | 0.0 | 0.9 | 0.00 | 0.60 | 0.00 | 95 | 921.0 |
| 20260905093005 | 64 | 159 | 0.0 | 0.9 | 0.00 | 0.60 | 0.00 | 95 | 920.9 |
| 20260905091505 | 64 | 185 | 0.0 | 1.7 | 0.00 | 0.60 | 0.00 | 95 | 920.9 |
| 20260905090505 | 64 | 245 | 0.0 | 0.9 | 0.00 | 0.60 | 0.00 | 95 | 920.9 |
| 20260905090005 | 64 | 164 | 0.0 | 1.7 | 0.00 | 0.60 | 0.00 | 95 | 920.9 |
| 20260905084505 | 64 | 192 | 0.0 | 0.9 | 0.00 | 0.60 | 0.00 | 95 | 920.8 |
| 20260905084005 | 64 | 133 | 0.0 | 0.9 | 0.00 | 0.60 | 0.00 | 95 | 920.9 |
| 20260905083505 | 64 | 173 | 0.0 | 1.7 | 0.00 | 0.60 | 0.00 | 95 | 920.9 |
| 20260905083005 | 64 | 147 | 0.0 | 0.9 | 0.00 | 0.60 | 0.00 | 95 | 920.9 |
| 20260905081504 | 64 | 233 | 0.9 | 1.7 | 0.00 | 0.60 | 0.00 | 95 | 921.0 |
| 20260905081005 | 64 | 181 | 0.0 | 1.7 | 0.00 | 0.60 | 0.00 | 95 | 921.1 |
| 20260905080505 | 64 | 188 | 0.0 | 0.9 | 0.00 | 0.60 | 0.00 | 95 | 921.1 |
| 20260905080005 | 64 | 157 | 0.9 | 1.7 | 0.00 | 0.60 | 0.00 | 95 | 921.2 |
| 20260905074504 | 64 | 35 | 0.0 | 0.9 | 0.00 | 0.60 | 0.00 | 95 | 921.2 |
| 20260905074005 | 64 | 183 | 0.0 | 1.7 | 0.00 | 0.60 | 0.00 | 95 | 921.2 |
| 20260905073504 | 64 | 24 | 0.9 | 1.7 | 0.00 | 0.60 | 0.00 | 95 | 921.1 |
| 20260905073005 | 64 | 154 | 0.0 | 0.9 | 0.00 | 0.60 | 0.00 | 95 | 921.2 |
| 20260905071504 | 64 | 0 | 0.0 | 0.9 | 0.00 | 0.60 | 0.00 | 95 | 921.4 |
| 20260905071005 | 64 | 171 | 0.0 | 0.9 | 0.00 | 0.60 | 0.00 | 95 | 921.4 |
| 20260905070505 | 63 | 225 | 0.0 | 0.9 | 0.00 | 0.60 | 0.00 | 95 | 921.4 |
| 20260905070004 | 63 | 271 | 0.0 | 0.9 | 0.00 | 0.60 | 0.00 | 95 | 921.4 |
| 20260905064505 | 64 | 147 | 0.0 | 1.7 | 0.00 | 0.60 | 0.00 | 95 | 921.5 |
| 20260905064004 | 64 | 98 | 0.0 | 0.9 | 0.00 | 0.60 | 0.00 | 95 | 921.7 |
| 20260905063504 | 64 | 20 | 0.0 | 0.9 | 0.00 | 0.60 | 0.00 | 95 | 921.7 |
| 20260905063005 | 64 | 86 | 0.0 | 0.9 | 0.00 | 0.60 | 0.00 | 95 | 921.8 |
| 20260905061504 | 64 | 156 | 0.0 | 0.0 | 0.00 | 0.60 | 0.00 | 95 | 922.0 |
| 20260905061004 | 64 | 174 | 0.0 | 0.9 | 0.00 | 0.60 | 0.00 | 95 | 922.1 |
| 20260905060005 | 64 | 37 | 0.0 | 0.9 | 0.00 | 0.60 | 0.00 | 95 | 922.1 |
| 20260905054504 | 64 | 193 | 0.0 | 0.9 | 0.00 | 0.60 | 0.00 | 95 | 922.3 |
| 20260905054004 | 64 | 183 | 0.0 | 0.9 | 0.00 | 0.60 | 0.00 | 95 | 922.4 |
| 20260905053504 | 64 | 132 | 0.0 | 0.9 | 0.00 | 0.60 | 0.00 | 95 | 922.4 |
| 20260905053004 | 64 | 107 | 0.0 | 1.7 | 0.00 | 0.60 | 0.00 | 95 | 922.5 |
| 20260905051004 | 64 | 348 | 0.0 | 0.9 | 0.00 | 0.60 | 0.00 | 95 | 922.6 |
| 20260905050504 | 64 | 206 | 0.0 | 0.9 | 0.00 | 0.60 | 0.00 | 95 | 922.6 |
| 20260905044504 | 65 | 6 | 0.0 | 0.9 | 0.30 | 0.60 | 0.00 | 95 | 922.7 |
| 20260905044004 | 65 | 279 | 0.0 | 0.9 | 0.30 | 0.60 | 0.00 | 95 | 922.7 |
| 20260905043504 | 65 | 116 | 0.0 | 0.9 | 0.30 | 0.60 | 0.00 | 95 | 922.8 |
| 20260905043004 | 65 | 130 | 0.0 | 0.9 | 0.30 | 0.60 | 0.00 | 95 | 922.9 |
| 20260905041504 | 65 | 359 | 0.0 | 0.9 | 0.30 | 0.60 | 0.00 | 95 | 923.0 |
| 20260905041004 | 65 | 169 | 0.0 | 0.9 | 0.30 | 0.60 | 0.00 | 95 | 923.0 |
| 20260905040004 | 65 | 239 | 0.0 | 0.9 | 0.00 | 0.30 | 0.00 | 95 | 923.1 |
| 20260905034504 | 65 | 39 | 0.0 | 0.9 | 0.00 | 0.30 | 0.30 | 95 | 923.1 |
| 20260905034004 | 65 | 7 | 0.0 | 0.9 | 0.00 | 0.30 | 0.30 | 95 | 923.1 |
| 20260905033504 | 65 | 163 | 0.0 | 0.9 | 0.00 | 0.30 | 0.30 | 95 | 923.1 |
| 20260905031505 | 66 | 177 | 0.0 | 0.9 | 0.00 | 0.30 | 0.30 | 95 | 923.2 |
| 20260905031005 | 66 | 91 | 0.0 | 0.9 | 0.00 | 0.30 | 0.30 | 95 | 923.2 |
| 20260905030505 | 66 | 156 | 0.0 | 1.7 | 0.00 | 0.30 | 0.30 | 95 | 923.3 |
| 20260905030005 | 66 | 63 | 0.0 | 1.7 | 0.00 | 0.30 | 0.30 | 95 | 923.3 |
| 20260905024506 | 67 | 154 | 0.0 | 1.7 | 0.00 | 0.30 | 0.30 | 95 | 923.4 |
| 20260905024006 | 67 | 25 | 1.7 | 1.7 | 0.00 | 0.30 | 0.30 | 95 | 923.3 |
| 20260905023506 | 67 | 268 | 0.0 | 0.9 | 0.00 | 0.30 | 0.30 | 95 | 923.3 |
| 20260905023005 | 67 | 0 | 0.9 | 1.7 | 0.00 | 0.30 | 0.30 | 95 | 923.3 |
| 20260905021505 | 67 | 212 | 0.0 | 1.7 | 0.00 | 0.30 | 0.30 | 95 | 923.4 |
| 20260905021005 | 67 | 194 | 0.0 | 1.7 | 0.00 | 0.30 | 0.30 | 95 | 923.3 |
| 20260905020505 | 67 | 15 | 0.9 | 2.6 | 0.00 | 0.30 | 0.30 | 95 | 923.3 |
| 20260905020005 | 67 | 160 | 0.0 | 1.7 | 0.00 | 0.30 | 0.30 | 95 | 923.2 |
| 20260905014006 | 68 | 276 | 0.0 | 1.7 | 0.00 | 0.30 | 0.30 | 95 | 923.0 |
| 20260905011506 | 68 | 267 | 0.9 | 1.7 | 0.00 | 0.30 | 0.30 | 95 | 923.1 |
| 20260905010506 | 69 | 358 | 0.9 | 2.6 | 0.00 | 0.30 | 0.30 | 95 | 923.2 |
| 20260905010005 | 69 | 333 | 0.0 | 2.6 | 0.00 | 0.30 | 0.30 | 95 | 923.4 |
| 20260905004505 | 69 | 119 | 1.7 | 1.7 | 0.00 | 0.30 | 0.30 | 95 | 923.4 |
| 20260905004005 | 70 | 293 | 0.0 | 1.7 | 0.00 | 0.30 | 0.30 | 94 | 923.4 |
| 20260905003505 | 70 | 24 | 1.7 | 2.6 | 0.00 | 0.30 | 0.30 | 95 | 923.7 |
| 20260905003005 | 70 | 93 | 0.0 | 1.7 | 0.00 | 0.30 | 0.30 | 94 | 923.7 |
| 20260905001505 | 71 | 339 | 0.0 | 1.7 | 0.00 | 0.30 | 0.30 | 93 | 923.8 |
| 20260905000505 | 71 | 333 | 1.7 | 2.6 | 0.00 | 0.30 | 0.30 | 93 | 923.6 |
| 20260905000005 | 72 | 326 | 0.9 | 1.7 | 0.00 | 0.30 | 0.30 | 92 | 923.4 |
| 20260904234505 | 73 | 126 | 0.0 | 0.9 | 0.00 | 0.30 | 0.30 | 91 | 922.5 |
| 20260904234005 | 73 | 230 | 0.0 | 1.7 | 0.00 | 0.30 | 0.30 | 90 | 922.1 |
| 20260904233504 | 73 | 301 | 0.0 | 1.7 | 0.00 | 0.30 | 0.30 | 90 | 921.5 |
| 20260904233005 | 74 | 349 | 0.9 | 2.6 | 0.00 | 0.30 | 0.30 | 90 | 921.2 |
| 20260904231004 | 76 | 351 | 1.7 | 2.6 | 0.00 | 0.30 | 0.30 | 87 | 918.1 |
| 20260904230505 | 76 | 266 | 0.0 | 0.9 | 0.00 | 0.30 | 0.30 | 85 | 917.1 |
| 20260904224504 | 77 | 157 | 0.0 | 1.7 | 0.01 | 0.30 | 0.30 | 83 | 916.5 |
| 20260904224004 | 76 | 298 | 0.0 | 0.0 | 0.01 | 0.30 | 0.30 | 86 | 918.4 |
| 20260904223505 | 74 | 320 | 0.9 | 1.7 | 0.01 | 0.30 | 0.30 | 86 | 918.3 |
| 20260904223005 | 73 | 300 | 1.7 | 4.3 | 0.01 | 0.30 | 0.30 | 88 | 919.0 |
| 20260904221505 | 73 | 299 | 0.0 | 0.9 | 0.01 | 0.30 | 0.30 | 91 | 921.1 |
| 20260904221005 | 72 | 262 | 0.0 | 0.9 | 0.01 | 0.30 | 0.30 | 90 | 920.9 |
| 20260904220504 | 72 | 324 | 0.9 | 1.7 | 0.01 | 0.30 | 0.30 | 90 | 920.5 |
| 20260904220004 | 72 | 125 | 1.7 | 2.6 | 0.00 | 0.29 | 0.29 | 89 | 919.7 |
| 20260904214504 | 72 | 21 | 1.7 | 4.3 | 0.00 | 0.29 | 0.29 | 87 | 917.9 |
| 20260904214004 | 72 | 310 | 1.7 | 6.1 | 0.00 | 0.29 | 0.29 | 86 | 917.5 |
| 20260904213505 | 71 | 331 | 1.7 | 6.1 | 0.00 | 0.29 | 0.29 | 85 | 917.2 |
| 20260904211504 | 71 | 353 | 1.7 | 5.2 | 0.29 | 0.29 | 0.29 | 88 | 918.9 |
| 20260904210505 | 71 | 94 | 0.0 | 1.7 | 0.29 | 0.29 | 0.29 | 93 | 921.3 |
| 20260904210004 | 71 | 263 | 0.9 | 6.1 | 0.29 | 0.29 | 0.29 | 92 | 920.5 |
| 20260904204505 | 71 | 337 | 2.6 | 6.1 | 0.29 | 0.29 | 0.29 | 90 | 917.4 |
| 20260904204004 | 72 | 171 | 0.9 | 2.6 | 0.29 | 0.29 | 0.29 | 86 | 916.1 |
| 20260904203504 | 74 | 32 | 1.7 | 4.3 | 0.29 | 0.29 | 0.29 | 83 | 916.3 |
| 20260904203005 | 78 | 293 | 2.6 | 7.0 | 0.22 | 0.22 | 0.22 | 78 | 919.2 |
| 20260904201504 | 88 | 0 | 0.0 | 0.0 | 0.00 | 0.00 | 0.00 | 63 | 925.4 |
| 20260904201005 | 89 | 0 | 0.0 | 0.0 | 0.00 | 0.00 | 0.00 | 59 | 926.3 |
| 20260904200004 | 91 | 0 | 0.0 | 0.0 | 0.00 | 0.00 | 0.00 | 55 | 926.8 |
| 20260904194504 | 92 | 0 | 0.0 | 0.0 | 0.00 | 0.00 | 0.00 | 54 | 926.9 |
| 20260904194004 | 91 | 0 | 0.0 | 0.0 | 0.00 | 0.00 | 0.00 | 53 | 926.7 |
| 20260904193504 | 91 | 0 | 0.0 | 0.0 | 0.00 | 0.00 | 0.00 | 53 | 926.9 |
| 20260904191504 | 87 | 0 | 0.0 | 0.0 | 0.00 | 0.00 | 0.00 | 65 | 925.6 |
| 20260904191004 | 85 | 0 | 0.0 | 0.0 | 0.00 | 0.00 | 0.00 | 67 | 924.8 |
| 20260904190504 | 85 | 0 | 0.0 | 0.0 | 0.00 | 0.00 | 0.00 | 70 | 923.5 |
| 20260904190004 | 85 | 0 | 0.0 | 0.0 | 0.00 | 0.00 | 0.00 | 70 | 923.5 |
| 20260904184504 | 87 | 0 | 0.0 | 0.0 | 0.00 | 0.00 | 0.00 | 64 | 926.3 |
| 20260904184004 | 88 | 0 | 0.0 | 0.0 | 0.00 | 0.00 | 0.00 | 59 | 927.1 |
| 20260904183504 | 88 | 0 | 0.0 | 0.0 | 0.00 | 0.00 | 0.00 | 59 | 926.8 |
| 20260904183004 | 88 | 0 | 0.0 | 0.0 | 0.00 | 0.00 | 0.00 | 60 | 927.3 |
| 20260904181505 | 88 | 0 | 0.0 | 0.0 | 0.00 | 0.00 | 0.00 | 61 | 926.9 |
| 20260904181006 | 89 | 0 | 0.0 | 0.0 | 0.00 | 0.00 | 0.00 | 57 | 927.5 |
| 20260904180506 | 89 | 0 | 0.0 | 0.0 | 0.00 | 0.00 | 0.00 | 58 | 927.3 |
| 20260904180005 | 88 | 0 | 0.0 | 0.0 | 0.00 | 0.00 | 0.00 | 60 | 926.9 |
| 20260904174505 | 86 | 0 | 0.0 | 0.0 | 0.00 | 0.00 | 0.00 | 64 | 926.7 |
| 20260904174006 | 86 | 0 | 0.0 | 0.0 | 0.00 | 0.00 | 0.00 | 68 | 924.9 |
| 20260904173506 | 86 | 0 | 0.0 | 0.0 | 0.00 | 0.00 | 0.00 | 70 | 924.5 |
| 20260904173006 | 86 | 0 | 0.0 | 0.0 | 0.00 | 0.00 | 0.00 | 71 | 924.1 |
| 20260904171505 | 86 | 0 | 0.0 | 0.0 | 0.00 | 0.00 | 0.00 | 66 | 926.9 |
| 20260904171005 | 86 | 0 | 0.0 | 0.0 | 0.00 | 0.00 | 0.00 | 65 | 926.5 |
| 20260904170505 | 87 | 0 | 0.0 | 0.0 | 0.00 | 0.00 | 0.00 | 64 | 927.0 |
| 20260904170005 | 87 | 0 | 0.0 | 0.0 | 0.00 | 0.00 | 0.00 | 63 | 927.4 |
| 20260904164507 | 86 | 0 | 0.0 | 0.0 | 0.00 | 0.00 | 0.00 | 66 | 927.1 |
| 20260904164005 | 86 | 0 | 0.0 | 0.0 | 0.00 | 0.00 | 0.00 | 65 | 927.0 |
| 20260904163506 | 85 | 0 | 0.0 | 0.0 | 0.00 | 0.00 | 0.00 | 67 | 926.5 |
| 20260904163005 | 85 | 0 | 0.0 | 0.0 | 0.00 | 0.00 | 0.00 | 67 | 926.9 |
| 20260904161505 | 86 | 0 | 0.0 | 0.0 | 0.00 | 0.00 | 0.00 | 65 | 927.0 |